createdAt,value
2023-03-07T00:00:38.623Z,0.80
2023-03-07T00:03:04.865Z,0.79
2023-03-07T00:05:31.188Z,0.84
2023-03-07T00:07:57.771Z,0.80
2023-03-07T00:10:24.112Z,0.89
2023-03-07T00:12:50.310Z,0.86
2023-03-07T00:15:16.584Z,0.90
2023-03-07T00:17:42.789Z,0.95
2023-03-07T00:20:09.350Z,0.96
2023-03-07T00:22:35.563Z,0.85
2023-03-07T00:25:01.800Z,0.93
2023-03-07T00:27:29.369Z,0.91
2023-03-07T00:29:55.584Z,0.90
2023-03-07T00:32:21.807Z,0.87
2023-03-07T00:34:48.032Z,0.88
2023-03-07T00:37:14.227Z,0.90
2023-03-07T00:39:40.872Z,0.94
2023-03-07T00:42:07.071Z,0.95
2023-03-07T00:44:33.280Z,0.97
2023-03-07T00:46:59.497Z,0.89
2023-03-07T00:49:25.904Z,0.94
2023-03-07T00:51:52.133Z,0.92
2023-03-07T00:54:18.361Z,0.89
2023-03-07T00:56:44.580Z,0.90
2023-03-07T00:59:10.825Z,0.92
2023-03-07T01:01:37.268Z,0.98
2023-03-07T01:04:03.506Z,0.98
2023-03-07T01:06:30.089Z,1.03
2023-03-07T01:08:57.152Z,1.01
2023-03-07T01:11:23.466Z,1.05
2023-03-07T01:13:49.691Z,1.04
2023-03-07T01:16:22.664Z,1.01
2023-03-07T01:18:49.666Z,0.99
2023-03-07T01:21:16.969Z,0.97
2023-03-07T01:23:43.296Z,0.89
2023-03-07T01:26:19.541Z,0.82
2023-03-07T01:28:45.858Z,0.80
2023-03-07T01:31:12.085Z,0.81
2023-03-07T01:33:38.304Z,0.76
2023-03-07T01:36:04.886Z,0.70
2023-03-07T01:38:31.141Z,0.68
2023-03-07T01:40:57.352Z,0.70
2023-03-07T01:43:24.728Z,0.72
2023-03-07T01:45:50.935Z,0.70
2023-03-07T01:48:17.383Z,0.76
2023-03-07T01:50:43.591Z,0.73
2023-03-07T01:53:09.804Z,0.69
2023-03-07T01:55:36.011Z,0.68
2023-03-07T01:58:12.094Z,0.66
2023-03-07T02:00:38.388Z,0.65
2023-03-07T02:03:08.076Z,0.58
2023-03-07T02:05:34.651Z,0.64
2023-03-07T02:08:00.876Z,0.60
2023-03-07T02:10:27.102Z,0.64
2023-03-07T02:12:53.479Z,0.63
2023-03-07T02:15:19.678Z,0.66
2023-03-07T02:17:45.890Z,0.67
2023-03-07T02:20:21.609Z,0.72
2023-03-07T02:22:48.376Z,0.73
2023-03-07T02:25:17.747Z,0.80
2023-03-07T02:27:43.948Z,0.79
2023-03-07T02:30:10.552Z,0.78
2023-03-07T02:32:36.830Z,0.76
2023-03-07T02:35:08.707Z,0.74
2023-03-07T02:37:34.974Z,0.73
2023-03-07T02:40:01.452Z,0.74
2023-03-07T02:42:28.525Z,0.72
2023-03-07T02:44:58.510Z,0.75
2023-03-07T02:47:24.876Z,0.75
2023-03-07T02:49:51.079Z,0.73
2023-03-07T02:52:17.348Z,0.74
2023-03-07T02:54:43.629Z,0.73
2023-03-07T02:57:09.843Z,0.75
2023-03-07T02:59:36.193Z,0.72
2023-03-07T03:02:02.395Z,0.71
2023-03-07T03:04:28.676Z,0.75
2023-03-07T03:06:54.916Z,0.76
2023-03-07T03:09:21.114Z,0.73
2023-03-07T03:11:47.376Z,0.76
2023-03-07T03:14:13.575Z,0.75
2023-03-07T03:16:39.777Z,0.73
2023-03-07T03:19:06.295Z,0.70
2023-03-07T03:21:32.531Z,0.71
2023-03-07T03:23:58.730Z,0.74
2023-03-07T03:26:24.957Z,0.71
2023-03-07T03:28:53.721Z,0.70
2023-03-07T03:31:19.946Z,0.70
2023-03-07T03:33:46.166Z,0.66
2023-03-07T03:36:13.139Z,0.69
2023-03-07T03:38:39.354Z,0.73
2023-03-07T03:41:06.120Z,0.67
2023-03-07T03:43:32.314Z,0.73
2023-03-07T03:45:58.531Z,0.67
2023-03-07T03:48:24.748Z,0.73
2023-03-07T03:50:50.972Z,0.74
2023-03-07T03:53:17.173Z,0.74
2023-03-07T03:55:43.373Z,0.74
2023-03-07T03:58:09.640Z,0.75
2023-03-07T04:00:35.844Z,0.73
2023-03-07T04:03:02.184Z,0.78
2023-03-07T04:05:28.512Z,0.76
2023-03-07T04:07:54.724Z,0.80
2023-03-07T04:10:20.917Z,0.84
2023-03-07T04:12:47.132Z,0.87
2023-03-07T04:15:13.327Z,0.90
2023-03-07T04:17:39.556Z,0.89
2023-03-07T04:20:06.059Z,0.92
2023-03-07T04:22:32.276Z,0.98
2023-03-07T04:24:58.483Z,0.99
2023-03-07T04:27:24.721Z,0.96
2023-03-07T04:29:50.960Z,1.01
2023-03-07T04:32:17.192Z,0.97
2023-03-07T04:34:43.418Z,1.01
2023-03-07T04:37:09.631Z,1.04
2023-03-07T04:39:35.844Z,1.02
2023-03-07T04:42:02.074Z,0.96
2023-03-07T04:44:28.275Z,0.99
2023-03-07T04:46:54.489Z,1.01
2023-03-07T04:49:20.684Z,1.10
2023-03-07T04:51:46.894Z,1.08
2023-03-07T04:54:13.145Z,1.06
2023-03-07T04:56:39.351Z,1.08
2023-03-07T04:59:05.573Z,1.08
2023-03-07T05:01:31.826Z,1.13
2023-03-07T05:03:58.050Z,1.13
2023-03-07T05:06:24.254Z,1.17
2023-03-07T05:08:50.460Z,1.18
2023-03-07T05:11:16.675Z,1.20
2023-03-07T05:13:42.876Z,1.19
2023-03-07T05:16:09.178Z,1.29
2023-03-07T05:18:35.430Z,1.26
2023-03-07T05:21:01.640Z,1.26
2023-03-07T05:23:27.898Z,1.30
2023-03-07T05:25:54.109Z,1.31
2023-03-07T05:28:20.323Z,1.34
2023-03-07T05:30:46.690Z,1.34
2023-03-07T05:33:13.115Z,1.34
2023-03-07T05:35:39.457Z,1.34
2023-03-07T05:38:06.072Z,1.30
2023-03-07T05:40:33.030Z,1.27
2023-03-07T05:42:59.286Z,1.36
2023-03-07T05:45:25.496Z,1.33
2023-03-07T05:47:51.703Z,1.28
2023-03-07T05:50:17.919Z,1.22
2023-03-07T05:52:44.132Z,1.22
2023-03-07T05:55:10.401Z,1.18
2023-03-07T05:57:36.627Z,1.19
2023-03-07T06:00:03.279Z,1.27
2023-03-07T06:02:29.538Z,1.30
2023-03-07T06:04:55.747Z,1.34
2023-03-07T06:07:21.960Z,1.34
2023-03-07T06:09:48.159Z,1.30
2023-03-07T06:12:14.382Z,1.33
2023-03-07T06:14:40.597Z,1.37
2023-03-07T06:17:06.820Z,1.42
2023-03-07T06:19:33.066Z,1.47
2023-03-07T06:21:59.319Z,1.58
2023-03-07T06:24:25.519Z,1.63
2023-03-07T06:26:51.742Z,1.66
2023-03-07T06:29:17.941Z,1.69
2023-03-07T06:31:44.173Z,1.77
2023-03-07T06:34:10.539Z,1.74
2023-03-07T06:36:36.749Z,1.81
2023-03-07T06:39:02.946Z,1.92
2023-03-07T06:41:29.165Z,1.92
2023-03-07T06:43:55.389Z,1.99
2023-03-07T06:46:21.609Z,1.98
2023-03-07T06:48:47.949Z,2.00
2023-03-07T06:51:14.138Z,2.05
2023-03-07T06:53:40.343Z,2.06
2023-03-07T06:56:07.218Z,2.19
2023-03-07T06:58:33.479Z,2.30
2023-03-07T07:00:59.669Z,2.26
2023-03-07T07:03:25.899Z,2.33
2023-03-07T07:05:52.116Z,2.26
2023-03-07T07:08:18.336Z,2.32
2023-03-07T07:10:44.608Z,2.36
2023-03-07T07:13:11.326Z,2.39
2023-03-07T07:15:37.527Z,2.39
2023-03-07T07:18:03.739Z,2.37
2023-03-07T07:20:29.936Z,2.45
2023-03-07T07:22:56.161Z,2.50
2023-03-07T07:25:29.825Z,2.49
2023-03-07T07:27:56.069Z,2.51
2023-03-07T07:30:22.312Z,2.42
2023-03-07T07:32:48.599Z,2.56
2023-03-07T07:35:14.853Z,2.67
2023-03-07T07:37:41.083Z,2.61
2023-03-07T07:40:07.654Z,2.59
2023-03-07T07:42:33.863Z,2.52
2023-03-07T07:45:00.109Z,2.52
2023-03-07T07:47:26.330Z,2.63
2023-03-07T07:49:52.531Z,2.76
2023-03-07T07:52:18.743Z,2.69
2023-03-07T07:54:45.222Z,2.68
2023-03-07T07:57:11.441Z,2.88
2023-03-07T07:59:37.710Z,3.52
2023-03-07T08:02:04.162Z,3.38
2023-03-07T08:04:30.689Z,2.99
2023-03-07T08:06:57.311Z,2.90
2023-03-07T08:09:23.610Z,2.79
2023-03-07T08:11:49.820Z,2.78
2023-03-07T08:14:16.042Z,2.80
2023-03-07T08:16:42.278Z,2.97
2023-03-07T08:19:08.505Z,3.16
2023-03-07T08:21:34.730Z,3.02
2023-03-07T08:24:00.942Z,3.11
2023-03-07T08:26:27.153Z,3.27
2023-03-07T08:28:53.377Z,3.26
2023-03-07T08:31:20.413Z,3.22
2023-03-07T08:33:46.797Z,3.28
2023-03-07T08:36:13.010Z,3.29
2023-03-07T08:38:39.228Z,3.33
2023-03-07T08:41:06.059Z,3.27
2023-03-07T08:43:32.765Z,3.24
2023-03-07T08:45:59.763Z,3.39
2023-03-07T08:48:26.540Z,3.48
2023-03-07T08:50:54.959Z,3.35
2023-03-07T08:53:26.330Z,3.29
2023-03-07T08:55:52.559Z,3.42
2023-03-07T08:58:18.779Z,3.57
2023-03-07T09:00:45.030Z,3.60
2023-03-07T09:03:11.287Z,3.44
2023-03-07T09:05:37.659Z,3.35
2023-03-07T09:08:04.195Z,3.31
2023-03-07T09:10:30.428Z,3.42
2023-03-07T09:12:56.640Z,3.31
2023-03-07T09:15:22.877Z,3.28
2023-03-07T09:17:49.078Z,3.27
2023-03-07T09:20:15.372Z,3.41
2023-03-07T09:22:41.647Z,3.41
2023-03-07T09:25:08.125Z,3.41
2023-03-07T09:27:34.348Z,3.45
2023-03-07T09:30:00.543Z,3.38
2023-03-07T09:32:26.805Z,3.41
2023-03-07T09:34:55.517Z,3.34
2023-03-07T09:37:21.734Z,3.24
2023-03-07T09:39:48.949Z,3.30
2023-03-07T09:42:21.621Z,3.41
2023-03-07T09:44:55.101Z,3.63
2023-03-07T09:47:30.508Z,3.51
2023-03-07T09:49:56.716Z,3.53
2023-03-07T09:52:23.544Z,3.49
2023-03-07T09:55:10.077Z,3.57
2023-03-07T09:57:45.725Z,3.63
2023-03-07T10:00:11.925Z,3.69
2023-03-07T10:02:44.311Z,3.75
2023-03-07T10:05:29.474Z,3.69
2023-03-07T10:07:55.695Z,3.68
2023-03-07T10:10:25.908Z,3.28
2023-03-07T10:13:10.537Z,3.00
2023-03-07T10:15:36.713Z,2.63
2023-03-07T10:18:08.811Z,2.57
2023-03-07T10:20:40.379Z,2.30
2023-03-07T10:23:25.721Z,2.35
2023-03-07T10:26:10.622Z,2.63
2023-03-07T10:28:37.757Z,2.68
2023-03-07T10:31:10.271Z,2.72
2023-03-07T10:33:38.193Z,2.74
2023-03-07T10:36:06.954Z,2.68
2023-03-07T10:38:33.882Z,2.63
2023-03-07T10:41:01.240Z,2.55
2023-03-07T10:43:28.320Z,2.53
2023-03-07T10:46:24.744Z,2.40
2023-03-07T10:48:52.568Z,2.07
2023-03-07T10:51:21.512Z,2.08
2023-03-07T10:53:47.742Z,2.11
2023-03-07T10:56:14.551Z,2.10
2023-03-07T10:58:45.836Z,2.39
2023-03-07T11:01:12.043Z,2.69
2023-03-07T11:03:51.558Z,2.83
2023-03-07T11:06:28.525Z,2.99
2023-03-07T11:08:54.732Z,3.14
2023-03-07T11:11:22.709Z,3.19
2023-03-07T11:14:09.988Z,3.53
2023-03-07T11:16:47.786Z,3.90
2023-03-07T11:19:27.956Z,4.29
2023-03-07T11:21:54.342Z,4.26
2023-03-07T11:24:24.501Z,4.41
2023-03-07T11:26:53.435Z,3.94
2023-03-07T11:29:19.685Z,3.81
2023-03-07T11:31:52.114Z,4.23
2023-03-07T11:34:24.518Z,4.09
2023-03-07T11:36:54.063Z,4.30
2023-03-07T11:39:31.936Z,4.60
2023-03-07T11:42:04.201Z,4.69
2023-03-07T11:44:34.583Z,4.76
2023-03-07T11:47:03.790Z,5.20
2023-03-07T11:49:43.261Z,5.49
2023-03-07T11:52:17.621Z,4.79
2023-03-07T11:54:59.052Z,4.80
2023-03-07T11:57:43.871Z,5.35
2023-03-07T12:00:23.354Z,4.89
2023-03-07T12:03:05.054Z,4.61
2023-03-07T12:05:40.202Z,4.98
2023-03-07T12:08:06.437Z,5.43
2023-03-07T12:10:48.374Z,5.19
2023-03-07T12:13:26.717Z,5.51
2023-03-07T12:16:08.683Z,5.49
2023-03-07T12:18:43.272Z,5.36
2023-03-07T12:21:16.752Z,5.31
2023-03-07T12:23:50.001Z,5.25
2023-03-07T12:26:19.310Z,5.45
2023-03-07T12:28:47.339Z,5.25
2023-03-07T12:31:30.401Z,5.21
2023-03-07T12:34:15.439Z,5.29
2023-03-07T12:36:41.642Z,5.28
2023-03-07T12:39:12.405Z,5.25
2023-03-07T12:41:44.855Z,5.80
2023-03-07T12:44:13.200Z,5.74
2023-03-07T12:46:44.590Z,5.72
2023-03-07T12:49:13.442Z,5.69
2023-03-07T12:51:40.529Z,5.43
2023-03-07T12:54:13.964Z,5.33
2023-03-07T12:56:46.369Z,5.01
2023-03-07T12:59:14.552Z,4.63
2023-03-07T13:01:46.257Z,4.47
2023-03-07T13:04:12.482Z,4.54
2023-03-07T13:06:38.697Z,4.67
2023-03-07T13:09:04.898Z,4.46
2023-03-07T13:11:32.122Z,4.59
2023-03-07T13:13:58.845Z,5.11
2023-03-07T13:16:32.335Z,5.56
2023-03-07T13:19:37.102Z,5.73
2023-03-07T13:22:14.966Z,5.55
2023-03-07T13:24:41.480Z,5.21
2023-03-07T13:27:14.772Z,4.74
2023-03-07T13:29:59.810Z,4.56
2023-03-07T13:32:44.741Z,4.33
2023-03-07T13:35:10.966Z,4.21
2023-03-07T13:37:49.404Z,4.11
2023-03-07T13:40:34.200Z,3.99
2023-03-07T13:43:00.621Z,3.88
2023-03-07T13:45:38.754Z,3.83
2023-03-07T13:48:11.566Z,3.74
2023-03-07T13:50:37.762Z,3.58
2023-03-07T13:53:22.227Z,3.68
2023-03-07T13:56:09.677Z,3.71
2023-03-07T13:58:40.000Z,3.76
2023-03-07T14:01:12.193Z,3.76
2023-03-07T14:03:39.265Z,3.79
2023-03-07T14:06:13.945Z,3.76
2023-03-07T14:08:40.147Z,3.93
2023-03-07T14:11:06.364Z,4.24
2023-03-07T14:13:53.938Z,4.29
2023-03-07T14:16:33.105Z,4.30
2023-03-07T14:19:08.578Z,4.48
2023-03-07T14:21:44.436Z,4.58
2023-03-07T14:24:14.005Z,4.44
2023-03-07T14:26:40.544Z,4.34
2023-03-07T14:29:20.027Z,4.44
2023-03-07T14:31:46.799Z,4.40
2023-03-07T14:34:18.689Z,4.13
2023-03-07T14:36:46.169Z,4.13
2023-03-07T14:39:12.789Z,3.90
2023-03-07T14:41:45.198Z,4.05
2023-03-07T14:44:18.559Z,4.14
2023-03-07T14:46:59.007Z,4.23
2023-03-07T14:49:34.616Z,4.25
2023-03-07T14:52:01.045Z,4.25
2023-03-07T14:54:30.588Z,4.21
2023-03-07T14:56:56.940Z,3.94
2023-03-07T14:59:29.076Z,3.94
2023-03-07T15:01:55.645Z,3.75
2023-03-07T15:04:23.128Z,3.69
2023-03-07T15:06:52.717Z,3.56
2023-03-07T15:09:18.920Z,3.59
2023-03-07T15:11:49.479Z,3.59
2023-03-07T15:14:23.123Z,3.67
2023-03-07T15:16:49.854Z,3.46
2023-03-07T15:19:34.873Z,3.29
2023-03-07T15:22:01.543Z,3.39
2023-03-07T15:24:31.708Z,3.41
2023-03-07T15:26:57.933Z,3.48
2023-03-07T15:29:24.688Z,3.54
2023-03-07T15:31:52.606Z,3.64
2023-03-07T15:34:25.824Z,3.65
2023-03-07T15:36:54.758Z,3.65
2023-03-07T15:39:31.100Z,3.59
2023-03-07T15:42:01.284Z,3.45
2023-03-07T15:44:27.587Z,3.35
2023-03-07T15:46:54.391Z,3.34
2023-03-07T15:49:22.244Z,3.36
2023-03-07T15:51:52.242Z,3.36
2023-03-07T15:54:30.527Z,3.30
2023-03-07T15:56:56.899Z,3.34
2023-03-07T15:59:23.081Z,3.27
2023-03-07T16:01:49.333Z,3.18
2023-03-07T16:04:44.935Z,3.12
2023-03-07T16:07:17.123Z,3.15
2023-03-07T16:09:43.340Z,3.04
2023-03-07T16:12:13.252Z,2.98
2023-03-07T16:14:39.465Z,2.93
2023-03-07T16:17:32.164Z,2.74
2023-03-07T16:19:58.372Z,2.73
2023-03-07T16:22:24.592Z,2.79
2023-03-07T16:24:50.822Z,2.70
2023-03-07T16:27:20.516Z,2.56
2023-03-07T16:29:46.790Z,2.61
2023-03-07T16:32:13.657Z,2.60
2023-03-07T16:34:40.024Z,2.55
2023-03-07T16:37:06.237Z,2.56
2023-03-07T16:39:32.493Z,2.55
2023-03-07T16:41:58.763Z,2.50
2023-03-07T16:44:24.968Z,2.51
2023-03-07T16:47:00.922Z,2.49
2023-03-07T16:49:27.127Z,2.51
2023-03-07T16:52:04.997Z,2.32
2023-03-07T16:54:32.350Z,2.32
2023-03-07T16:56:58.571Z,2.22
2023-03-07T16:59:24.918Z,2.21
2023-03-07T17:01:51.538Z,2.24
2023-03-07T17:04:17.752Z,2.07
2023-03-07T17:06:47.319Z,2.12
2023-03-07T17:09:17.390Z,2.02
2023-03-07T17:11:44.293Z,2.04
2023-03-07T17:14:10.568Z,1.96
2023-03-07T17:16:38.656Z,1.99
2023-03-07T17:19:04.885Z,1.85
2023-03-07T17:21:31.088Z,1.85
2023-03-07T17:23:57.296Z,1.83
2023-03-07T17:26:33.240Z,1.91
2023-03-07T17:29:00.852Z,1.79
2023-03-07T17:31:27.067Z,1.83
2023-03-07T17:33:53.300Z,1.63
2023-03-07T17:36:19.516Z,1.51
2023-03-07T17:38:45.749Z,1.61
2023-03-07T17:41:11.946Z,1.69
2023-03-07T17:43:38.158Z,1.52
2023-03-07T17:46:08.035Z,1.46
2023-03-07T17:48:34.271Z,1.47
2023-03-07T17:51:00.464Z,1.48
2023-03-07T17:53:26.741Z,1.56
2023-03-07T17:55:52.942Z,1.56
2023-03-07T17:58:19.155Z,1.53
2023-03-07T18:00:45.388Z,1.42
2023-03-07T18:03:11.608Z,1.38
2023-03-07T18:05:38.847Z,1.40
2023-03-07T18:08:05.229Z,1.40
2023-03-07T18:10:31.495Z,1.26
2023-03-07T18:12:57.754Z,1.25
2023-03-07T18:15:23.974Z,1.39
2023-03-07T18:17:50.214Z,1.28
2023-03-07T18:20:17.476Z,1.12
2023-03-07T18:22:43.688Z,1.20
2023-03-07T18:25:10.742Z,1.21
2023-03-07T18:27:36.930Z,1.12
2023-03-07T18:30:03.417Z,1.00
2023-03-07T18:32:29.664Z,1.00
2023-03-07T18:34:55.935Z,0.92
2023-03-07T18:37:23.324Z,1.01
2023-03-07T18:39:49.531Z,1.06
2023-03-07T18:42:15.738Z,1.08
2023-03-07T18:44:41.947Z,1.05
2023-03-07T18:47:08.194Z,1.01
2023-03-07T18:49:34.433Z,1.02
2023-03-07T18:52:00.639Z,0.97
2023-03-07T18:54:26.861Z,0.92
2023-03-07T18:56:53.053Z,1.00
2023-03-07T18:59:19.318Z,0.98
2023-03-07T19:01:45.589Z,0.97
2023-03-07T19:04:11.842Z,0.82
2023-03-07T19:06:38.777Z,0.75
2023-03-07T19:09:04.990Z,0.72
2023-03-07T19:11:31.301Z,0.73
2023-03-07T19:13:57.605Z,0.77
2023-03-07T19:16:24.459Z,0.77
2023-03-07T19:18:50.858Z,0.68
2023-03-07T19:21:17.740Z,0.69
2023-03-07T19:23:43.967Z,0.66
2023-03-07T19:26:10.561Z,0.55
2023-03-07T19:28:36.792Z,0.54
2023-03-07T19:31:09.437Z,0.62
2023-03-07T19:33:35.733Z,0.50
2023-03-07T19:36:02.736Z,0.63
2023-03-07T19:38:29.000Z,0.65
2023-03-07T19:40:55.235Z,0.64
2023-03-07T19:43:21.430Z,0.63
2023-03-07T19:45:47.651Z,0.65
2023-03-07T19:48:13.877Z,0.65
2023-03-07T19:50:40.389Z,0.58
2023-03-07T19:53:06.659Z,0.63
2023-03-07T19:55:32.884Z,0.61
2023-03-07T19:57:59.108Z,0.57
2023-03-07T20:00:25.354Z,0.51
2023-03-07T20:02:51.555Z,0.40
2023-03-07T20:05:17.871Z,0.35
2023-03-07T20:07:44.111Z,0.35
2023-03-07T20:10:10.660Z,0.20
2023-03-07T20:12:36.890Z,0.22
2023-03-07T20:15:03.206Z,0.20
2023-03-07T20:17:29.409Z,0.14
2023-03-07T20:19:55.910Z,0.13
2023-03-07T20:22:22.104Z,0.01
2023-03-07T20:24:49.100Z,-0.07
2023-03-07T20:27:15.307Z,-0.17
2023-03-07T20:29:41.517Z,-0.26
2023-03-07T20:32:07.746Z,-0.27
2023-03-07T20:34:33.997Z,-0.26
2023-03-07T20:37:00.193Z,-0.39
2023-03-07T20:39:26.426Z,-0.37
2023-03-07T20:41:52.639Z,-0.39
2023-03-07T20:44:18.861Z,-0.43
2023-03-07T20:46:45.157Z,-0.49
2023-03-07T20:49:11.990Z,-0.48
2023-03-07T20:51:38.192Z,-0.53
2023-03-07T20:54:05.388Z,-0.54
2023-03-07T20:56:31.909Z,-0.59
2023-03-07T20:58:58.114Z,-0.63
2023-03-07T21:01:25.045Z,-0.65
2023-03-07T21:03:51.360Z,-0.74
2023-03-07T21:06:17.594Z,-0.76
2023-03-07T21:08:43.883Z,-0.76
2023-03-07T21:11:10.982Z,-0.78
2023-03-07T21:13:37.953Z,-0.84
2023-03-07T21:16:14.193Z,-0.88
2023-03-07T21:18:40.444Z,-0.92
2023-03-07T21:21:07.605Z,-0.92
2023-03-07T21:23:33.804Z,-0.95
2023-03-07T21:26:00.526Z,-1.01
2023-03-07T21:28:26.747Z,-1.02
2023-03-07T21:30:58.612Z,-1.03
2023-03-07T21:33:24.811Z,-1.07
2023-03-07T21:35:51.048Z,-1.06
2023-03-07T21:38:17.268Z,-1.11
2023-03-07T21:40:43.472Z,-1.09
2023-03-07T21:43:09.671Z,-1.14
2023-03-07T21:45:35.895Z,-1.11
2023-03-07T21:48:02.105Z,-1.10
2023-03-07T21:50:28.346Z,-1.08
2023-03-07T21:52:54.550Z,-1.02
2023-03-07T21:55:21.005Z,-1.05
2023-03-07T21:57:47.214Z,-1.04
2023-03-07T22:00:13.503Z,-1.04
2023-03-07T22:02:39.695Z,-0.96
2023-03-07T22:05:05.946Z,-0.95
2023-03-07T22:07:32.177Z,-0.95
2023-03-07T22:09:58.401Z,-0.99
2023-03-07T22:12:24.622Z,-0.98
2023-03-07T22:14:50.875Z,-1.02
2023-03-07T22:17:17.144Z,-1.10
2023-03-07T22:19:43.356Z,-1.13
2023-03-07T22:22:09.557Z,-1.15
2023-03-07T22:24:35.750Z,-1.14
2023-03-07T22:27:01.949Z,-1.16
2023-03-07T22:29:28.149Z,-1.10
2023-03-07T22:31:54.401Z,-1.14
2023-03-07T22:34:20.639Z,-1.15
2023-03-07T22:36:46.857Z,-1.14
2023-03-07T22:39:13.137Z,-1.19
2023-03-07T22:41:39.353Z,-1.21
2023-03-07T22:44:05.558Z,-1.26
2023-03-07T22:46:31.816Z,-1.27
2023-03-07T22:48:58.059Z,-1.27
2023-03-07T22:51:24.336Z,-1.34
2023-03-07T22:53:50.546Z,-1.33
2023-03-07T22:56:23.595Z,-1.32
2023-03-07T22:58:49.826Z,-1.33
2023-03-07T23:01:16.780Z,-1.35
2023-03-07T23:03:42.985Z,-1.39
2023-03-07T23:06:09.238Z,-1.35
2023-03-07T23:08:35.443Z,-1.30
2023-03-07T23:11:05.546Z,-1.30
2023-03-07T23:13:31.759Z,-1.31
2023-03-07T23:15:58.001Z,-1.29
2023-03-07T23:18:24.260Z,-1.37
2023-03-07T23:20:50.488Z,-1.35
2023-03-07T23:23:16.717Z,-1.42
2023-03-07T23:25:42.920Z,-1.40
2023-03-07T23:28:09.299Z,-1.44
2023-03-07T23:30:39.216Z,-1.42
2023-03-07T23:33:05.762Z,-1.44
2023-03-07T23:35:32.499Z,-1.36
2023-03-07T23:37:58.726Z,-1.34
2023-03-07T23:40:24.935Z,-1.42
2023-03-07T23:42:51.169Z,-1.39
2023-03-07T23:45:17.383Z,-1.41
2023-03-07T23:47:43.671Z,-1.47
2023-03-07T23:50:10.203Z,-1.53
2023-03-07T23:52:36.433Z,-1.53
2023-03-07T23:55:02.664Z,-1.56
2023-03-07T23:57:28.884Z,-1.55
2023-03-07T23:59:55.095Z,-1.56
